FW0097 Weather Reports


Display with metric or nautical units.
time (UTC)temp
F
wind
direction
speed
MPH
gust
MPH
rain 1hr
in
rain 24hr
in
rain mn
in
humidity
%
barometer
mb
20181121130018 45 48 3.0 8.0 0.00 0.06 0.00 78 1017.3
20181121124522 44 57 2.0 5.0 0.00 0.06 0.00 78 1017.2
20181121123045 44 60 3.0 6.0 0.00 0.06 0.00 78 1017.2
20181121121515 44 45 3.0 5.0 0.00 0.06 0.00 79 1017.3
20181121120048 44 42 3.0 5.0 0.00 0.06 0.00 80 1017.3
20181121114514 44 14 3.0 8.0 0.00 0.06 0.00 80 1017.4
20181121113041 44 324 1.0 4.0 0.00 0.06 0.00 80 1017.3
20181121111531 43 29 2.0 4.0 0.00 0.06 0.00 79 1017.4
20181121110010 43 30 1.0 3.0 0.00 0.06 0.00 80 1017.4
20181121104521 43 325 2.0 4.0 0.00 0.06 0.00 80 1017.4
20181121103007 42 351 1.0 3.0 0.00 0.06 0.00 80 1017.4
20181121101731 42 355 1.0 5.0 0.00 0.06 0.00 80 1017.5
20181121100141 42 355 4.0 8.0 0.00 0.06 0.00 80 1017.4
20181121094703 42 12 2.0 8.0 0.00 0.06 0.00 81 1017.5
20181121093240 41 80 3.0 9.0 0.00 0.06 0.00 82 1017.5
20181121091619 41 355 2.0 5.0 0.00 0.06 0.00 83 1017.5
20181121090202 40 57 2.0 6.0 0.00 0.06 0.00 84 1017.5
20181121084646 40 24 2.0 8.0 0.00 0.06 0.00 85 1017.3
20181121083123 39 15 3.0 6.0 0.00 0.06 0.00 86 1017.3
20181121081635 39 5 3.0 10.0 0.00 0.06 0.00 86 1017.4
20181121080139 39 43 3.0 6.0 0.00 0.06 0.00 86 1017.5
20181121074706 39 43 3.0 6.0 0.00 0.06 0.00 86 1017.5
20181121073129 39 64 3.0 7.0 0.00 0.06 0.00 86 1017.4
20181121071635 38 27 3.0 8.0 0.00 0.06 0.00 87 1017.4
20181121070055 39 5 1.0 3.0 0.00 0.06 0.00 87 1017.2
20181121064535 39 5 0.0 2.0 0.00 0.06 0.00 85 1017.2
20181121063058 39 5 0.0 3.0 0.00 0.06 0.00 84 1017.1
20181121061601 39 13 2.0 5.0 0.00 0.06 0.00 84 1016.9
20181121060031 39 62 2.0 5.0 0.00 0.06 0.00 84 1016.8
20181121054530 39 59 3.0 6.0 0.00 0.06 0.00 85 1016.5
20181121053023 38 48 2.0 4.0 0.00 0.06 0.00 87 1016.3
20181121051522 38 48 3.0 6.0 0.00 0.06 0.00 87 1016.2
20181121050015 38 36 3.0 6.0 0.00 0.06 0.00 87 1016.1
20181121044512 38 30 2.0 4.0 0.00 0.06 0.00 87 1016.3
20181121043018 38 51 1.0 3.0 0.00 0.06 0.00 87 1016.2
20181121041521 38 51 0.0 2.0 0.00 0.06 0.00 88 1016.0
20181121040006 38 51 2.0 4.0 0.00 0.06 0.00 87 1015.8
20181121034505 38 355 2.0 4.0 0.00 0.06 0.00 87 1016.0
20181121033002 38 33 2.0 4.0 0.00 0.06 0.00 88 1015.9
20181121031508 38 66 2.0 4.0 0.00 0.06 0.00 88 1015.7
20181121030004 38 66 1.0 3.0 0.00 0.06 0.00 89 1015.6
20181121024757 38 5 1.0 3.0 0.00 0.06 0.00 89 1015.4
20181121023300 38 29 1.0 4.0 0.00 0.06 0.00 88 1015.4
20181121021712 38 32 1.0 3.0 0.00 0.06 0.00 89 1015.4
20181121020216 38 32 1.0 5.0 0.00 0.06 0.00 88 1015.4
20181121014648 38 42 2.0 5.0 0.00 0.06 0.00 88 1015.3
20181121013213 38 71 3.0 6.0 0.00 0.06 0.00 88 1015.3
20181121011838 38 348 2.0 5.0 0.00 0.06 0.00 89 1015.4
20181121010116 38 53 4.0 8.0 0.00 0.06 0.00 89 1015.6
20181121004636 38 5 3.0 8.0 0.00 0.06 0.00 90 1015.7
20181121003134 38 72 0.0 0.0 0.00 0.06 0.00 91 1015.8
20181121001556 38 72 0.0 0.0 0.00 0.06 0.00 91 1015.8
20181121000310 39 72 0.0 0.0 0.00 0.06 0.00 91 1015.8
20181120234620 38 72 0.0 0.0 0.00 0.06 0.00 92 1015.8
20181120233147 38 72 0.0 0.0 0.00 0.06 0.00 91 1015.8
20181120231703 38 72 0.0 0.0 0.00 0.06 0.00 93 1015.8
20181120230150 38 72 0.0 0.0 0.00 0.06 0.00 92 1015.7
20181120224611 38 72 0.0 0.0 0.00 0.06 0.06 92 1015.6
20181120223135 38 72 0.0 0.0 0.00 0.06 0.06 92 1015.6
20181120221552 38 72 0.0 0.0 0.00 0.06 0.06 92 1015.6
20181120220136 38 72 0.0 0.0 0.00 0.06 0.06 92 1015.5
20181120214610 38 72 0.0 0.0 0.00 0.06 0.06 92 1015.4
20181120213104 38 72 0.0 0.0 0.00 0.06 0.06 91 1015.3
20181120211618 38 72 0.0 0.0 0.00 0.06 0.06 90 1015.0
20181120210102 39 72 0.0 0.0 0.00 0.06 0.06 88 1015.1
20181120204615 38 72 0.0 0.0 0.00 0.06 0.06 89 1015.0
20181120203136 38 72 0.0 0.0 0.00 0.06 0.06 90 1015.1
20181120201551 37 72 0.0 0.0 0.00 0.06 0.06 90 1015.0
20181120200102 37 72 0.0 2.0 0.00 0.06 0.06 91 1014.9
20181120194618 38 72 0.0 1.0 0.00 0.06 0.06 91 1014.8
20181120193056 38 72 0.0 1.0 0.00 0.06 0.06 91 1014.7
20181120191706 38 72 0.0 0.0 0.00 0.06 0.06 89 1014.8
20181120190101 38 72 0.0 0.0 0.00 0.06 0.06 90 1014.7
20181120184605 38 72 0.0 2.0 0.00 0.06 0.06 90 1014.6
20181120183114 37 72 0.0 3.0 0.00 0.06 0.06 89 1014.6
20181120181622 37 72 3.0 5.0 0.00 0.06 0.06 89 1014.5
20181120180103 37 53 3.0 5.0 0.00 0.06 0.06 89 1014.5
20181120174531 37 51 1.0 3.0 0.00 0.06 0.06 89 1014.3
20181120173105 37 53 3.0 8.0 0.00 0.06 0.06 89 1014.2
20181120171555 37 51 1.0 5.0 0.00 0.06 0.06 90 1014.2
20181120170249 37 360 2.0 5.0 0.00 0.06 0.06 90 1014.1
20181120164623 37 346 2.0 6.0 0.00 0.06 0.06 90 1013.9
20181120163103 37 10 2.0 5.0 0.00 0.06 0.06 90 1014.1
20181120161529 37 14 2.0 4.0 0.00 0.06 0.06 90 1014.0
20181120160110 37 67 1.0 4.0 0.00 0.06 0.06 90 1013.9
20181120154603 37 32 3.0 6.0 0.00 0.06 0.06 90 1013.9
20181120153028 37 39 2.0 6.0 0.01 0.06 0.06 91 1014.0
20181120151557 37 355 1.0 5.0 0.01 0.06 0.06 91 1014.2
20181120150032 37 360 2.0 5.0 0.01 0.06 0.06 91 1014.1
20181120144543 37 44 2.0 4.0 0.02 0.06 0.06 90 1014.3
20181120143021 37 43 2.0 5.0 0.02 0.06 0.06 90 1014.2
20181120141516 37 5 1.0 4.0 0.03 0.06 0.06 90 1014.2
20181120140039 37 355 0.0 3.0 0.05 0.06 0.06 90 1014.4
20181120134538 37 355 1.0 5.0 0.04 0.05 0.05 89 1014.4
20181120133014 37 22 1.0 4.0 0.03 0.04 0.04 87 1014.4
20181120131515 37 76 2.0 4.0 0.02 0.02 0.02 86 1014.4